ADDS METAR Data INFO
IDs: Format: Raw Decoded Include TAF

Data at: 1223 UTC 22 Feb 2018

KILG 221151Z 06009KT 10SM OVC025 11/02 A3049 RMK AO2 SLP323 70002 T01110022 10144 20111 51010
KILG 221112Z AUTO 04012KT 10SM BKN026 OVC037 11/01 A3047 RMK AO2 T01110011
KILG 221051Z AUTO 02010KT 10SM FEW027 OVC039 11/01 A3048 RMK AO2 SLP321 T01110006
KILG 220951Z AUTO 04012KT 10SM OVC039 12/00 A3046 RMK AO2 SLP315 T01220000
KILG 220851Z AUTO 03008KT 10SM OVC038 12/02 A3045 RMK AO2 SLP312 T01220022 50007
KILG 220751Z AUTO 36009KT 10SM BKN035 OVC060 13/07 A3046 RMK AO2 SLP314 T01280072
KILG 220651Z AUTO 36009KT 10SM BKN033 OVC110 14/09 A3045 RMK AO2 SLP311 T01390094
KILG 220551Z AUTO 01012KT 10SM BKN033 BKN060 OVC110 14/11 A3043 RMK AO2 SLP305 60002 T01440106 10200 20144 53030
KILG 220506Z AUTO 01010KT 10SM SCT027 BKN070 OVC110 15/12 A3040 RMK AO2 T01500117
KILG 220451Z AUTO 01009KT 10SM BKN025 BKN040 OVC070 16/12 A3040 RMK AO2 SLP293 T01560122 402560094
KILG 220351Z AUTO 01007KT 10SM BKN023 17/14 A3037 RMK AO2 WSHFT 0324 RAB0258E23 SLP285 P0002 T01670144
KILG 212351Z 14004KT 10SM FEW090 19/15 A3029 RMK AO2 SLP258 T01890150 10256 20189 53014
KILG 212251Z 21006KT 10SM CLR 23/16 A3027 RMK AO2 SLP250 T02280161
KILG 212151Z 22010KT 10SM BKN120 24/16 A3025 RMK AO2 SLP245 T02440161
KILG 212051Z 21009G18KT 10SM SCT110 25/17 A3025 RMK AO2 SLP244 T02500167 56010
KILG 211951Z 22010G19KT 10SM CLR 26/17 A3025 RMK AO2 SLP245 T02560167
KILG 211851Z 22012G21KT 10SM BKN095 24/17 A3026 RMK AO2 SLP246 T02440167
KILG 211751Z 24011G18KT 10SM FEW030 FEW080 SCT095 24/17 A3028 RMK AO2 SLP254 T02390167 10244 20133 58017
KILG 211651Z 23012KT 10SM FEW090 23/17 A3030 RMK AO2 PK WND 24026/1554 SLP260 T02280167
KILG 211551Z 23016G24KT 10SM FEW022 21/17 A3032 RMK AO2 SLP267 T02110167
KILG 211457Z 23013G19KT 10SM SCT013 SCT018 20/17 A3033 RMK AO2 T02000167
KILG 211451Z 23009G18KT 10SM BKN013 19/17 A3033 RMK AO2 SLP271 T01940167 50001
KILG 211422Z 22009KT 10SM OVC010 18/17 A3034 RMK AO2 T01780167
KILG 211351Z 21008KT 10SM OVC008 17/17 A3034 RMK AO2 RAE1253 SLP273 T01720167 PNO
KILG 211251Z 22009G15KT 9SM -RA OVC008 17/16 A3033 RMK AO2 RAB44 SLP271 T01670161 PNO $
KILG 210751Z AUTO 16005KT 1/4SM R01/1400V1600FT FG VV001 11/11 A3033 RMK AO2 SLP269 T01110111 PWINO $
KILG 210651Z AUTO 17008KT 1/4SM R01/1400FT FG VV001 11/11 A3033 RMK AO2 RAB03RAEMM SLP271 P0000 T01110111 PWINO $
KILG 210551Z AUTO 16007KT 1/4SM R01/1200V1600FT FG VV001 12/12 A3034 RMK AO2 RAB32E47 SLP274 P0000 60000 T01220122 10172 20117 56000 $